Time;durP1;ratioP1;P1;durP2;ratioP2;P2;SDS_P1;SDS_P2;PMS_P1;PMS_P2;Temp;Humidity;BMP_temperature;BMP_pressure;BME280_temperature;BME280_humidity;BME280_pressure;Samples;Min_cycle;Max_cycle;Signal;HPM_P1;HPM_P2
2023/10/31 00:00:31;;;;;;;3.37;3.00;;;12.00;99.90;;;;;;6272598;28;20216;-62
2023/10/31 00:03:32;;;;;;;5.50;3.30;;;12.10;99.90;;;;;;6289202;28;20192;-62
2023/10/31 00:06:32;;;;;;;3.77;3.10;;;12.20;99.90;;;;;;6320486;28;20188;-62
2023/10/31 00:09:33;;;;;;;5.23;3.07;;;12.20;99.90;;;;;;6289758;28;20192;-61
2023/10/31 00:12:34;;;;;;;4.17;3.23;;;12.20;99.90;;;;;;6284734;28;20184;-62
2023/10/31 00:15:34;;;;;;;3.10;2.80;;;12.30;99.90;;;;;;6273041;28;20299;-62
2023/10/31 00:18:35;;;;;;;4.63;2.80;;;12.40;99.90;;;;;;6295848;28;20222;-62
2023/10/31 00:21:36;;;;;;;4.87;3.03;;;12.40;99.90;;;;;;6274287;28;20261;-62
2023/10/31 00:24:36;;;;;;;3.73;3.13;;;12.50;99.90;;;;;;6303069;28;20207;-61
2023/10/31 00:27:37;;;;;;;8.23;3.30;;;12.50;99.90;;;;;;6290047;28;20189;-62
2023/10/31 00:30:38;;;;;;;4.37;3.13;;;12.50;99.90;;;;;;6301774;28;20245;-62
2023/10/31 00:33:38;;;;;;;3.80;2.70;;;12.50;99.90;;;;;;6294093;28;20197;-61
2023/10/31 00:36:39;;;;;;;4.97;2.93;;;12.60;99.90;;;;;;6297276;28;20238;-61
2023/10/31 00:39:40;;;;;;;3.97;2.87;;;12.60;99.90;;;;;;6288168;28;20257;-62
2023/10/31 00:42:41;;;;;;;3.33;2.67;;;12.60;99.90;;;;;;6303467;28;20239;-62
2023/10/31 00:45:42;;;;;;;5.03;3.10;;;12.70;99.90;;;;;;6283038;28;20277;-62
2023/10/31 00:48:43;;;;;;;4.50;3.03;;;12.70;99.90;;;;;;6302086;28;20195;-61
2023/10/31 00:51:43;;;;;;;4.20;2.60;;;12.70;99.90;;;;;;6284982;28;20219;-62
2023/10/31 00:54:44;;;;;;;5.70;3.10;;;12.70;99.90;;;;;;6271133;28;20191;-61
2023/10/31 00:57:45;;;;;;;5.07;2.80;;;12.80;99.20;;;;;;6292476;28;20184;-61
2023/10/31 01:00:46;;;;;;;4.60;2.93;;;12.90;99.50;;;;;;6279320;28;20223;-62
2023/10/31 01:03:46;;;;;;;5.37;2.87;;;12.90;98.80;;;;;;6302176;28;20242;-61
2023/10/31 01:06:47;;;;;;;5.47;3.10;;;12.90;98.70;;;;;;6283527;28;20189;-61
2023/10/31 01:09:48;;;;;;;3.30;2.57;;;12.90;98.60;;;;;;6302086;28;20298;-61
2023/10/31 01:12:48;;;;;;;5.97;3.60;;;13.00;98.50;;;;;;6295253;28;20194;-62
2023/10/31 01:15:49;;;;;;;9.20;2.93;;;13.00;97.20;;;;;;6277044;28;20286;-62
2023/10/31 01:18:50;;;;;;;4.70;2.60;;;13.00;96.60;;;;;;6285329;28;20211;-62
2023/10/31 01:21:50;;;;;;;5.43;2.67;;;13.00;97.20;;;;;;6292984;28;20196;-62
2023/10/31 01:24:51;;;;;;;5.37;2.90;;;13.10;96.40;;;;;;6285363;28;20185;-61
2023/10/31 01:27:52;;;;;;;2.80;2.33;;;13.10;96.00;;;;;;6306926;28;20199;-61
2023/10/31 01:30:52;;;;;;;4.97;2.27;;;13.10;96.00;;;;;;6278147;28;20192;-61
2023/10/31 01:33:53;;;;;;;5.47;2.53;;;13.10;95.60;;;;;;6287737;28;20184;-62
2023/10/31 01:36:54;;;;;;;6.90;2.53;;;13.30;93.70;;;;;;6278962;28;20349;-61
2023/10/31 01:39:54;;;;;;;4.97;3.07;;;13.30;94.40;;;;;;6289673;28;20225;-61
2023/10/31 01:42:56;;;;;;;5.40;2.67;;;13.20;95.40;;;;;;6289167;28;20195;-61
2023/10/31 01:45:56;;;;;;;3.50;2.73;;;13.20;96.20;;;;;;6301521;28;20181;-61
2023/10/31 01:48:57;;;;;;;4.93;3.30;;;13.10;97.00;;;;;;6296345;28;20303;-61
2023/10/31 01:52:00;;;;;;;3.53;2.60;;;13.10;97.50;;;;;;6283188;28;20242;-61
2023/10/31 01:55:02;;;;;;;7.23;2.50;;;13.10;96.70;;;;;;6310560;28;20192;-61
2023/10/31 01:58:03;;;;;;;5.00;3.00;;;13.10;97.60;;;;;;6274210;28;20213;-61
2023/10/31 02:01:05;;;;;;;5.73;3.13;;;13.10;98.40;;;;;;6292746;28;20240;-61
2023/10/31 02:04:06;;;;;;;9.97;3.30;;;13.10;98.70;;;;;;6321377;28;20177;-61
2023/10/31 02:07:06;;;;;;;9.33;3.20;;;13.30;98.00;;;;;;6323296;28;20216;-61
2023/10/31 02:10:07;;;;;;;6.33;3.27;;;13.40;97.30;;;;;;6304629;28;20208;-61
2023/10/31 02:13:16;;;;;;;6.47;3.20;;;13.50;97.20;;;;;;6289717;28;20188;-61
2023/10/31 02:16:17;;;;;;;5.83;3.20;;;13.40;97.70;;;;;;6319348;28;20190;-61
2023/10/31 02:19:20;;;;;;;4.60;3.07;;;13.50;97.70;;;;;;6289786;28;20212;-61
2023/10/31 02:22:22;;;;;;;5.50;3.63;;;13.50;98.40;;;;;;6323364;28;20254;-61
2023/10/31 02:25:23;;;;;;;4.73;3.60;;;13.40;99.80;;;;;;6281774;28;20276;-61
2023/10/31 02:28:27;;;;;;;5.57;3.80;;;13.30;99.90;;;;;;6279732;28;20201;-61
2023/10/31 02:31:28;;;;;;;7.83;3.93;;;13.30;99.90;;;;;;6293446;28;20199;-61
2023/10/31 02:34:29;;;;;;;6.10;3.93;;;13.30;99.90;;;;;;6281986;28;20227;-61
2023/10/31 02:37:29;;;;;;;9.47;4.13;;;13.30;99.90;;;;;;6286791;28;20196;-61
2023/10/31 02:40:30;;;;;;;5.37;3.60;;;13.20;99.90;;;;;;6280371;28;20216;-61
2023/10/31 02:43:31;;;;;;;4.13;3.43;;;13.20;99.90;;;;;;6283997;28;20212;-61
2023/10/31 02:46:32;;;;;;;5.53;4.07;;;13.10;99.90;;;;;;6306596;28;20182;-61
2023/10/31 02:49:32;;;;;;;8.10;3.97;;;13.10;99.90;;;;;;6278727;28;20201;-61
2023/10/31 02:52:33;;;;;;;5.20;3.97;;;13.10;99.90;;;;;;6301592;28;20196;-62
2023/10/31 02:55:34;;;;;;;6.23;4.30;;;13.10;99.90;;;;;;6301874;28;20234;-61
2023/10/31 02:58:34;;;;;;;9.23;4.00;;;13.00;99.90;;;;;;6286823;28;20192;-61
2023/10/31 03:01:36;;;;;;;7.80;4.50;;;13.00;99.90;;;;;;6286523;28;20192;-61
2023/10/31 03:04:36;;;;;;;9.10;4.07;;;13.00;99.90;;;;;;6304897;28;21250;-61
2023/10/31 03:07:37;;;;;;;8.33;4.33;;;12.90;99.90;;;;;;6284417;28;20180;-61
2023/10/31 03:10:39;;;;;;;5.83;4.13;;;13.00;99.90;;;;;;6298159;28;20284;-61
2023/10/31 03:13:40;;;;;;;5.50;3.60;;;12.90;99.90;;;;;;6304336;28;20193;-61
2023/10/31 03:16:40;;;;;;;5.63;3.97;;;12.90;99.90;;;;;;6286312;28;20320;-61
2023/10/31 03:19:41;;;;;;;8.80;4.20;;;12.90;99.90;;;;;;6283244;28;20213;-61
2023/10/31 03:22:42;;;;;;;4.50;3.47;;;12.90;99.90;;;;;;6285925;28;20309;-61
2023/10/31 03:25:42;;;;;;;4.30;3.90;;;12.90;99.90;;;;;;6313741;28;20186;-61
2023/10/31 03:28:44;;;;;;;5.07;3.90;;;12.90;99.90;;;;;;6280319;28;20181;-61
2023/10/31 03:31:44;;;;;;;6.97;4.00;;;12.90;99.90;;;;;;6299741;28;20186;-61
2023/10/31 03:34:45;;;;;;;5.57;3.93;;;12.80;99.90;;;;;;6280405;28;20230;-61
2023/10/31 03:37:46;;;;;;;3.90;3.43;;;12.80;99.90;;;;;;6284710;28;20190;-61
2023/10/31 03:40:47;;;;;;;7.20;4.43;;;12.80;99.90;;;;;;6272505;28;20217;-61
2023/10/31 03:43:47;;;;;;;5.23;3.50;;;12.80;99.90;;;;;;6276536;28;20185;-61
2023/10/31 03:46:48;;;;;;;4.50;3.63;;;12.80;99.90;;;;;;6281844;28;20215;-61
2023/10/31 03:49:49;;;;;;;8.37;3.37;;;12.70;99.90;;;;;;6303379;28;20184;-61
2023/10/31 03:52:49;;;;;;;6.37;3.37;;;12.70;99.90;;;;;;6275119;28;20194;-61
2023/10/31 03:55:50;;;;;;;5.03;3.30;;;12.70;99.90;;;;;;6298441;28;20192;-61
2023/10/31 03:58:51;;;;;;;4.97;3.13;;;12.70;99.90;;;;;;6280526;28;20205;-61
2023/10/31 04:01:51;;;;;;;6.50;3.17;;;12.70;99.90;;;;;;6304564;28;20190;-61
2023/10/31 04:04:52;;;;;;;6.43;3.50;;;12.70;99.90;;;;;;6284845;28;20193;-61
2023/10/31 04:07:53;;;;;;;4.33;3.47;;;12.80;99.90;;;;;;6318227;28;20272;-61
2023/10/31 04:10:54;;;;;;;6.83;3.70;;;12.80;99.90;;;;;;6286521;28;20181;-61
2023/10/31 04:13:55;;;;;;;5.37;3.50;;;12.80;99.90;;;;;;6277483;28;20237;-61
2023/10/31 04:16:55;;;;;;;8.90;3.77;;;12.80;99.90;;;;;;6276054;28;20196;-61
2023/10/31 04:19:56;;;;;;;4.53;3.37;;;12.80;99.90;;;;;;6278232;28;20269;-61
2023/10/31 04:22:57;;;;;;;9.03;3.50;;;12.80;99.90;;;;;;6299233;28;20204;-61
2023/10/31 04:25:58;;;;;;;12.00;3.90;;;12.80;99.90;;;;;;6272975;28;20196;-61
2023/10/31 04:28:58;;;;;;;6.43;3.27;;;12.80;99.90;;;;;;6313107;28;20181;-61
2023/10/31 04:31:59;;;;;;;5.13;2.80;;;12.80;99.90;;;;;;6285172;28;20196;-61
2023/10/31 04:35:00;;;;;;;3.87;3.30;;;12.80;99.90;;;;;;6282168;28;20237;-61
2023/10/31 04:38:01;;;;;;;3.90;2.93;;;12.80;99.90;;;;;;6283409;28;20246;-61
2023/10/31 04:41:02;;;;;;;3.67;3.00;;;12.80;99.90;;;;;;6274453;28;20204;-61
2023/10/31 04:44:03;;;;;;;3.50;2.93;;;12.80;99.90;;;;;;6295658;28;20216;-61
2023/10/31 04:47:04;;;;;;;3.63;2.80;;;12.80;99.90;;;;;;6282213;28;20176;-61
2023/10/31 04:50:05;;;;;;;3.33;2.97;;;12.90;99.90;;;;;;6300007;28;20222;-61
2023/10/31 04:53:05;;;;;;;5.63;3.20;;;12.90;99.90;;;;;;6275021;28;20185;-61
2023/10/31 04:56:15;;;;;;;4.47;2.80;;;12.90;99.90;;;;;;6273594;28;20197;-61
2023/10/31 04:59:16;;;;;;;7.43;3.93;;;12.90;99.90;;;;;;6322867;28;20211;-60
2023/10/31 05:02:16;;;;;;;4.80;3.27;;;12.90;99.90;;;;;;6334440;28;20188;-60
2023/10/31 05:05:17;;;;;;;5.63;3.27;;;12.90;99.90;;;;;;6284711;28;20190;-61
2023/10/31 05:08:18;;;;;;;7.23;3.13;;;12.90;99.90;;;;;;6290009;28;20193;-60
2023/10/31 05:11:19;;;;;;;3.80;2.77;;;12.90;99.90;;;;;;6300578;28;20276;-61
2023/10/31 05:14:20;;;;;;;5.80;3.00;;;12.80;99.90;;;;;;6322119;28;20192;-61
2023/10/31 05:17:21;;;;;;;5.73;2.90;;;12.80;99.90;;;;;;6295301;28;20238;-61
2023/10/31 05:20:21;;;;;;;4.47;2.80;;;12.80;99.90;;;;;;6271502;28;20244;-61
2023/10/31 05:23:22;;;;;;;5.93;2.97;;;12.80;99.90;;;;;;6304301;28;20180;-61
2023/10/31 05:26:23;;;;;;;3.30;2.90;;;12.80;99.90;;;;;;6307319;28;20234;-61
2023/10/31 05:29:23;;;;;;;4.80;3.40;;;12.80;99.90;;;;;;6314854;28;20280;-61
2023/10/31 05:32:24;;;;;;;3.40;2.80;;;12.80;99.90;;;;;;6303744;28;20197;-61
2023/10/31 05:35:25;;;;;;;3.37;2.93;;;12.80;99.90;;;;;;6273723;28;20247;-61
2023/10/31 05:38:26;;;;;;;5.87;3.00;;;12.80;99.90;;;;;;6296317;28;20258;-61
2023/10/31 05:41:26;;;;;;;4.33;3.20;;;12.80;99.90;;;;;;6283546;28;20254;-61
2023/10/31 05:44:27;;;;;;;6.17;3.50;;;12.80;99.90;;;;;;6316727;28;20192;-61
2023/10/31 05:47:28;;;;;;;6.50;3.53;;;12.80;99.90;;;;;;6293791;28;20250;-61
2023/10/31 05:50:29;;;;;;;4.40;3.00;;;12.80;99.90;;;;;;6302693;28;20208;-61
2023/10/31 05:53:32;;;;;;;4.03;3.43;;;12.80;99.90;;;;;;6287360;28;20189;-61
2023/10/31 05:56:33;;;;;;;4.60;3.13;;;12.80;99.90;;;;;;6306749;28;20204;-61
2023/10/31 05:59:33;;;;;;;6.97;2.93;;;12.80;99.90;;;;;;6288149;28;20208;-61
2023/10/31 06:02:34;;;;;;;4.37;2.87;;;12.80;99.90;;;;;;6289169;28;20186;-61
2023/10/31 06:05:35;;;;;;;4.70;2.90;;;12.80;99.90;;;;;;6305360;28;20204;-61
2023/10/31 06:08:36;;;;;;;4.33;2.73;;;12.80;99.90;;;;;;6282060;28;20268;-61
2023/10/31 06:11:39;;;;;;;4.80;2.43;;;12.70;99.90;;;;;;6301755;28;20188;-61
2023/10/31 06:14:39;;;;;;;3.60;2.70;;;12.70;99.90;;;;;;6296934;28;20251;-60
2023/10/31 06:17:40;;;;;;;5.93;2.90;;;12.70;99.90;;;;;;6267338;28;20250;-60
2023/10/31 06:20:41;;;;;;;3.03;2.60;;;12.70;99.90;;;;;;6279783;28;20201;-61
2023/10/31 06:23:45;;;;;;;5.80;3.10;;;12.70;99.90;;;;;;6293108;28;20188;-60
2023/10/31 06:26:45;;;;;;;4.87;3.30;;;12.70;99.90;;;;;;6272175;28;20198;-61
2023/10/31 06:29:46;;;;;;;4.63;3.00;;;12.70;99.90;;;;;;6280663;28;20189;-60
2023/10/31 06:32:47;;;;;;;4.93;3.00;;;12.70;99.90;;;;;;6274502;28;20218;-60
2023/10/31 06:35:47;;;;;;;7.77;3.63;;;12.70;99.90;;;;;;6289300;28;20243;-60
2023/10/31 06:38:48;;;;;;;3.40;3.10;;;12.70;99.90;;;;;;6281495;28;20194;-61
2023/10/31 06:41:49;;;;;;;9.70;3.63;;;12.70;99.90;;;;;;6281122;28;20241;-61
2023/10/31 06:44:50;;;;;;;4.73;3.30;;;12.70;99.90;;;;;;6301805;28;20181;-61
2023/10/31 06:47:50;;;;;;;5.10;3.37;;;12.70;99.90;;;;;;6300775;28;20280;-61
2023/10/31 06:50:51;;;;;;;6.37;3.20;;;12.70;99.90;;;;;;6280873;28;20200;-61
2023/10/31 06:53:52;;;;;;;4.50;2.83;;;12.70;99.90;;;;;;6284390;28;20279;-60
2023/10/31 06:56:52;;;;;;;4.67;3.20;;;12.70;99.90;;;;;;6279616;28;20189;-61
2023/10/31 06:59:53;;;;;;;7.10;3.30;;;12.70;99.90;;;;;;6267528;28;20213;-61
2023/10/31 07:02:54;;;;;;;7.07;3.20;;;12.70;99.90;;;;;;6290951;28;20206;-60
2023/10/31 07:05:56;;;;;;;3.60;3.30;;;12.70;99.90;;;;;;6298639;28;20189;-60
2023/10/31 07:08:57;;;;;;;5.00;3.40;;;12.70;99.90;;;;;;6297169;28;20190;-61
2023/10/31 07:11:58;;;;;;;3.73;3.37;;;12.70;99.90;;;;;;6296172;28;20185;-61
2023/10/31 07:14:58;;;;;;;5.23;3.50;;;12.70;99.90;;;;;;6273661;28;20207;-60
2023/10/31 07:17:59;;;;;;;5.50;3.00;;;12.70;99.90;;;;;;6303668;28;20280;-61
2023/10/31 07:21:00;;;;;;;3.93;3.23;;;12.70;99.90;;;;;;6276049;28;20295;-60
2023/10/31 07:24:01;;;;;;;5.23;3.27;;;12.70;99.90;;;;;;6293487;28;20183;-61
2023/10/31 07:27:02;;;;;;;5.53;3.73;;;12.70;99.90;;;;;;6277050;28;20192;-61
2023/10/31 07:30:04;;;;;;;5.10;3.17;;;12.70;99.90;;;;;;6286504;28;20213;-61
2023/10/31 07:33:05;;;;;;;4.47;3.67;;;12.70;99.90;;;;;;6306968;28;20197;-60
2023/10/31 07:36:06;;;;;;;5.47;3.70;;;12.70;99.90;;;;;;6281122;28;20233;-61
2023/10/31 07:39:07;;;;;;;5.80;4.03;;;12.70;99.90;;;;;;6275445;28;20225;-61
2023/10/31 07:42:08;;;;;;;5.97;2.90;;;12.70;99.90;;;;;;6312861;28;20331;-61
2023/10/31 07:45:10;;;;;;;4.73;3.27;;;12.70;99.90;;;;;;6312786;28;20213;-61
2023/10/31 07:48:11;;;;;;;5.50;3.37;;;12.80;99.90;;;;;;6282411;28;20259;-61
2023/10/31 07:51:11;;;;;;;4.73;3.00;;;12.80;99.90;;;;;;6276576;28;20199;-60
2023/10/31 07:54:12;;;;;;;3.83;3.40;;;12.80;99.90;;;;;;6276282;28;20192;-60
2023/10/31 07:57:13;;;;;;;4.93;3.17;;;12.80;99.90;;;;;;6282808;28;20216;-60
2023/10/31 08:00:14;;;;;;;6.40;3.00;;;12.90;99.90;;;;;;6289650;28;20201;-61
2023/10/31 08:03:14;;;;;;;4.13;3.43;;;13.00;99.90;;;;;;6288129;28;20242;-61
2023/10/31 08:06:15;;;;;;;3.70;3.40;;;13.00;99.90;;;;;;6298423;28;20203;-61
2023/10/31 08:09:16;;;;;;;8.53;3.73;;;13.10;99.90;;;;;;6303276;28;20192;-61
2023/10/31 08:12:17;;;;;;;3.60;3.30;;;13.10;99.90;;;;;;6282484;28;20247;-61
2023/10/31 08:15:18;;;;;;;4.77;3.80;;;13.20;99.90;;;;;;6295780;28;20196;-62
2023/10/31 08:18:19;;;;;;;11.67;5.70;;;13.30;99.90;;;;;;6299281;28;20281;-60
2023/10/31 08:21:20;;;;;;;12.87;5.90;;;13.30;99.90;;;;;;6288410;28;20207;-60
2023/10/31 08:24:21;;;;;;;7.47;4.90;;;13.30;99.90;;;;;;6280537;28;20181;-60
2023/10/31 08:27:21;;;;;;;7.23;4.97;;;13.30;99.90;;;;;;6266458;28;20189;-60
2023/10/31 08:30:22;;;;;;;9.07;4.87;;;13.30;99.90;;;;;;6299591;28;20681;-60
2023/10/31 08:33:23;;;;;;;8.60;5.03;;;13.30;99.90;;;;;;6306331;28;20196;-60
2023/10/31 08:36:24;;;;;;;9.20;6.10;;;13.30;99.90;;;;;;6324232;28;20240;-60
2023/10/31 08:39:26;;;;;;;12.27;6.50;;;13.30;99.90;;;;;;6300399;28;20223;-60
2023/10/31 08:42:26;;;;;;;11.97;6.60;;;13.20;99.90;;;;;;6309441;28;20237;-60
2023/10/31 08:45:27;;;;;;;13.60;7.57;;;13.20;99.90;;;;;;6308982;28;20188;-60
2023/10/31 08:48:28;;;;;;;14.37;8.37;;;13.10;99.90;;;;;;6284587;28;20188;-60
2023/10/31 08:51:28;;;;;;;14.53;9.00;;;13.10;99.90;;;;;;6275579;28;20188;-60
2023/10/31 08:54:29;;;;;;;19.23;8.70;;;13.10;99.90;;;;;;6284700;28;20200;-59
2023/10/31 08:57:30;;;;;;;10.73;6.73;;;13.10;99.90;;;;;;6289886;28;20200;-59
2023/10/31 09:00:31;;;;;;;10.60;5.67;;;13.10;99.90;;;;;;6303886;28;20214;-59
2023/10/31 09:03:31;;;;;;;8.90;5.57;;;13.10;99.90;;;;;;6314057;28;20185;-59
2023/10/31 09:06:32;;;;;;;10.00;5.97;;;13.10;99.90;;;;;;6279012;28;20186;-60
2023/10/31 09:09:33;;;;;;;7.80;5.63;;;13.10;99.90;;;;;;6280058;28;20219;-60
2023/10/31 09:12:33;;;;;;;11.97;6.80;;;13.10;99.90;;;;;;6279247;28;20301;-60
2023/10/31 09:15:34;;;;;;;12.30;7.33;;;13.10;99.90;;;;;;6286592;28;20207;-60
2023/10/31 09:18:35;;;;;;;11.77;7.17;;;13.10;99.90;;;;;;6300046;28;20209;-60
2023/10/31 09:21:35;;;;;;;15.90;8.10;;;13.10;99.90;;;;;;6286401;28;20214;-60
2023/10/31 09:24:36;;;;;;;15.60;8.90;;;13.10;99.90;;;;;;6294111;28;20216;-60
2023/10/31 09:27:40;;;;;;;19.90;10.13;;;13.10;99.90;;;;;;6308764;28;20180;-60
2023/10/31 09:30:41;;;;;;;22.30;11.10;;;13.10;99.90;;;;;;6305168;28;20189;-60
2023/10/31 09:33:42;;;;;;;18.63;9.10;;;;;;;;;;6310933;28;20196;-60
2023/10/31 09:36:43;;;;;;;10.63;5.27;;;;;;;;;;6297940;28;20241;-59
2023/10/31 09:39:44;;;;;;;2.43;1.90;;;;;;;;;;6297983;28;20227;-60
2023/10/31 09:42:49;;;;;;;1.90;1.53;;;;;;;;;;6309062;28;20215;-60
2023/10/31 09:45:51;;;;;;;4.00;1.83;;;;;;;;;;6305021;28;20193;-60
2023/10/31 09:48:52;;;;;;;3.17;1.80;;;;;;;;;;6291203;28;20185;-61
2023/10/31 09:51:53;;;;;;;3.27;1.80;;;;;;;;;;6322633;28;20184;-60
2023/10/31 09:54:55;;;;;;;5.60;2.37;;;;;;;;;;6323241;28;20279;-60
2023/10/31 09:57:56;;;;;;;4.20;2.80;;;;;;;;;;6322512;28;20207;-60
2023/10/31 10:00:57;;;;;;;5.03;2.77;;;;;;;;;;6306346;28;20311;-60
2023/10/31 10:03:59;;;;;;;3.77;2.67;;;;;;;;;;6306822;28;20296;-60
2023/10/31 10:07:03;;;;;;;2.40;2.10;;;;;;;;;;6302907;28;20199;-60
2023/10/31 10:10:04;;;;;;;4.77;2.57;;;;;;;;;;6319452;28;20611;-60
2023/10/31 10:13:05;;;;;;;3.67;2.10;;;;;;;;;;6301088;28;20193;-60
2023/10/31 10:16:07;;;;;;;3.97;2.10;;;;;;;;;;6305326;28;20185;-60
2023/10/31 10:19:23;;;;;;;3.10;2.77;;;;;;;;;;6320477;28;20196;-60
2023/10/31 10:22:29;;;;;;;5.07;3.70;;;;;;;;;;6315181;28;20260;-60
2023/10/31 10:25:30;;;;;;;1.93;1.23;;;;;;;;;;6322140;28;20207;-60
2023/10/31 10:28:33;;;;;;;1.53;0.83;;;;;;;;;;6294979;28;20225;-60
2023/10/31 10:31:34;;;;;;;1.50;0.80;;;;;;;;;;6291261;28;20193;-60
2023/10/31 10:34:35;;;;;;;0.50;0.50;;;;;;;;;;6295952;28;20236;-60
2023/10/31 10:37:39;;;;;;;4.73;0.60;;;;;;;;;;6289930;28;20236;-60
2023/10/31 10:40:44;;;;;;;0.30;0.30;;;;;;;;;;6310493;28;20220;-60
2023/10/31 10:43:49;;;;;;;1.30;0.40;;;24.00;50.00;;;;;;6319094;28;20191;-60
2023/10/31 10:46:55;;;;;;;0.30;0.30;;;10.10;99.90;;;;;;6310309;28;20182;-60
2023/10/31 10:49:59;;;;;;;0.40;0.30;;;10.00;99.90;;;;;;6300536;28;20185;-60
2023/10/31 10:53:10;;;;;;;1.40;0.40;;;10.00;99.90;;;;;;6301790;28;20202;-60
2023/10/31 10:56:19;;;;;;;1.43;0.40;;;10.10;99.90;;;;;;6330313;28;20204;-60
2023/10/31 10:59:22;;;;;;;0.73;0.50;;;10.10;99.90;;;;;;6313557;28;20616;-60
2023/10/31 11:02:24;;;;;;;0.27;0.27;;;10.00;99.90;;;;;;6311034;28;20312;-60
2023/10/31 11:05:25;;;;;;;0.67;0.67;;;9.80;99.90;;;;;;6304448;28;20211;-60
2023/10/31 11:08:28;;;;;;;0.77;0.40;;;9.70;99.90;;;;;;6303852;28;20196;-60
2023/10/31 11:11:29;;;;;;;0.50;0.50;;;9.90;99.90;;;;;;6319861;28;20181;-60
2023/10/31 11:14:31;;;;;;;0.70;0.70;;;;;;;;;;6288192;28;20193;-60
2023/10/31 11:17:34;;;;;;;0.57;0.50;;;9.80;99.90;;;;;;6316614;28;20185;-60
2023/10/31 11:20:36;;;;;;;0.87;0.60;;;;;;;;;;6292714;28;20220;-61
2023/10/31 11:23:39;;;;;;;0.30;0.30;;;;;;;;;;6294246;28;20193;-61
2023/10/31 11:26:51;;;;;;;1.63;0.50;;;;;;;;;;6304965;28;20420;-61
2023/10/31 11:29:55;;;;;;;1.23;0.30;;;;;;;;;;6298452;28;20193;-61
2023/10/31 11:32:58;;;;;;;0.30;0.30;;;;;;;;;;6308447;28;20211;-61
2023/10/31 11:36:03;;;;;;;1.10;0.27;;;;;;;;;;6314040;28;20227;-61
2023/10/31 11:39:14;;;;;;;2.93;0.47;;;;;;;;;;6299239;28;20189;-61
2023/10/31 11:42:20;;;;;;;0.60;0.40;;;;;;;;;;6311873;28;20177;-61
2023/10/31 11:45:30;;;;;;;0.50;0.40;;;;;;;;;;6287420;28;20239;-61
2023/10/31 11:48:48;;;;;;;0.50;0.50;;;;;;;;;;6321474;28;20237;-61
2023/10/31 11:51:50;;;;;;;0.30;0.30;;;;;;;;;;6316612;28;20189;-61
2023/10/31 11:54:51;;;;;;;0.40;0.40;;;;;;;;;;6301198;28;20193;-61
2023/10/31 11:57:52;;;;;;;0.70;0.40;;;;;;;;;;6298719;28;20192;-61
2023/10/31 12:01:01;;;;;;;0.20;0.20;;;;;;;;;;6294232;28;20238;-61
2023/10/31 12:04:03;;;;;;;0.10;0.10;;;;;;;;;;6307655;28;20228;-61
2023/10/31 12:07:05;;;;;;;1.70;0.23;;;;;;;;;;6305063;28;20224;-61
2023/10/31 12:10:06;;;;;;;0.43;0.30;;;9.80;99.90;;;;;;6317395;28;20259;-62
2023/10/31 12:13:13;;;;;;;0.47;0.40;;;9.20;99.90;;;;;;6300591;28;20201;-61
2023/10/31 12:16:14;;;;;;;0.47;0.37;;;9.20;99.90;;;;;;6300684;28;20253;-61
2023/10/31 12:19:14;;;;;;;0.30;0.20;;;9.10;99.90;;;;;;6303747;28;20215;-61
2023/10/31 12:22:15;;;;;;;0.83;0.47;;;9.20;99.90;;;;;;6275548;28;20275;-61
2023/10/31 12:25:16;;;;;;;0.20;0.20;;;9.20;99.90;;;;;;6278674;28;20193;-61
2023/10/31 12:28:21;;;;;;;0.50;0.50;;;;;;;;;;6274654;28;20204;-61
2023/10/31 12:31:22;;;;;;;0.63;0.57;;;;;;;;;;6293394;28;20250;-61
2023/10/31 12:34:24;;;;;;;0.20;0.20;;;;;;;;;;6295822;28;20200;-61
2023/10/31 12:37:25;;;;;;;0.33;0.30;;;;;;;;;;6293733;28;20251;-61
2023/10/31 12:40:26;;;;;;;0.60;0.30;;;;;;;;;;6287241;28;20246;-61
2023/10/31 12:43:29;;;;;;;3.50;0.57;;;;;;;;;;6300982;28;20192;-61
2023/10/31 12:46:31;;;;;;;1.27;0.87;;;;;;;;;;6291568;28;20193;-61
2023/10/31 12:49:32;;;;;;;0.60;0.60;;;;;;;;;;6307301;28;20245;-61
2023/10/31 12:52:46;;;;;;;0.77;0.70;;;;;;;;;;6305410;28;20199;-61
2023/10/31 12:55:47;;;;;;;0.60;0.60;;;;;;;;;;6294392;28;20204;-61
2023/10/31 12:58:48;;;;;;;0.63;0.63;;;;;;;;;;6292443;28;20342;-61
2023/10/31 13:01:49;;;;;;;0.60;0.60;;;;;;;;;;6289553;28;20223;-61
2023/10/31 13:04:51;;;;;;;1.00;0.80;;;;;;;;;;6302107;28;20176;-61
2023/10/31 13:07:53;;;;;;;1.00;0.73;;;;;;;;;;6299827;28;20192;-61
2023/10/31 13:10:54;;;;;;;1.20;1.10;;;;;;;;;;6297212;28;20189;-61
2023/10/31 13:13:55;;;;;;;1.43;1.00;;;;;;;;;;6291754;28;20193;-61
2023/10/31 13:16:56;;;;;;;1.17;1.10;;;;;;;;;;6320674;28;20188;-61
2023/10/31 13:19:57;;;;;;;1.50;1.40;;;;;;;;;;6286727;28;20273;-61
2023/10/31 13:23:02;;;;;;;1.40;1.30;;;;;;;;;;6289481;28;20197;-61
2023/10/31 13:26:03;;;;;;;1.50;1.37;;;;;;;;;;6296460;28;20192;-61
2023/10/31 13:29:04;;;;;;;2.60;0.80;;;;;;;;;;6294895;28;20184;-61
2023/10/31 13:32:05;;;;;;;1.87;0.63;;;;;;;;;;6300418;28;20205;-61
2023/10/31 13:35:09;;;;;;;0.90;0.90;;;;;;;;;;6301091;28;20232;-61
2023/10/31 13:38:10;;;;;;;0.80;0.80;;;;;;;;;;6308483;28;20188;-61
2023/10/31 13:41:11;;;;;;;1.27;1.17;;;;;;;;;;6296982;28;20234;-61
2023/10/31 13:44:12;;;;;;;1.33;1.10;;;;;;;;;;6298667;28;20189;-61
2023/10/31 13:47:13;;;;;;;1.33;0.90;;;;;;;;;;6299791;28;20191;-61
2023/10/31 13:50:15;;;;;;;1.17;0.83;;;;;;;;;;6322747;28;20214;-61
2023/10/31 13:53:16;;;;;;;2.43;1.00;;;;;;;;;;6320432;28;20234;-61
2023/10/31 13:56:17;;;;;;;3.60;1.50;;;;;;;;;;6291280;28;20196;-61
2023/10/31 13:59:19;;;;;;;2.30;1.10;;;;;;;;;;6300268;28;20220;-61
2023/10/31 14:02:20;;;;;;;4.00;1.83;;;;;;;;;;6317785;28;20249;-61
2023/10/31 14:05:21;;;;;;;3.83;1.47;;;;;;;;;;6319610;28;20200;-61
2023/10/31 14:08:22;;;;;;;2.50;1.60;;;;;;;;;;6296740;28;20192;-61
2023/10/31 14:11:23;;;;;;;3.63;1.30;;;;;;;;;;6306892;28;20194;-61
2023/10/31 14:14:24;;;;;;;3.87;1.50;;;;;;;;;;6322418;28;20238;-61
2023/10/31 14:17:26;;;;;;;5.37;1.47;;;;;;;;;;6303793;28;20196;-61
2023/10/31 14:20:27;;;;;;;5.53;2.23;;;;;;;;;;6299056;28;20220;-61
2023/10/31 14:23:28;;;;;;;3.50;1.50;;;;;;;;;;6293958;28;20196;-60
2023/10/31 14:26:29;;;;;;;6.53;1.83;;;;;;;;;;6303346;28;20188;-60
2023/10/31 14:29:30;;;;;;;7.80;2.17;;;;;;;;;;6301474;28;20188;-60
2023/10/31 14:32:32;;;;;;;5.40;2.00;;;;;;;;;;6304747;28;20311;-60
2023/10/31 14:35:35;;;;;;;28.07;5.27;;;;;;;;;;6291083;28;20297;-61
2023/10/31 14:38:36;;;;;;;8.87;3.70;;;;;;;;;;6299797;28;20197;-61
2023/10/31 14:41:37;;;;;;;23.10;4.50;;;;;;;;;;6301106;28;20204;-61
2023/10/31 14:44:38;;;;;;;37.60;6.50;;;;;;;;;;6315579;28;20211;-61
2023/10/31 14:47:39;;;;;;;14.13;6.07;;;;;;;;;;6298279;28;20197;-61
2023/10/31 14:50:41;;;;;;;8.03;4.77;;;;;;;;;;6294415;28;20192;-61
2023/10/31 14:53:42;;;;;;;6.33;3.43;;;;;;;;;;6288747;28;20209;-61
2023/10/31 14:56:43;;;;;;;5.20;3.63;;;;;;;;;;6304394;28;20207;-60
2023/10/31 14:59:44;;;;;;;5.33;3.73;;;;;;;;;;6291045;28;20319;-60
2023/10/31 15:02:45;;;;;;;7.53;4.80;;;;;;;;;;6302410;28;20183;-60
2023/10/31 15:05:46;;;;;;;15.90;7.77;;;;;;;;;;6298562;28;20185;-61
2023/10/31 15:08:47;;;;;;;13.03;6.37;;;;;;;;;;6317240;28;20271;-60
2023/10/31 15:11:48;;;;;;;26.53;8.90;;;;;;;;;;6297372;28;20204;-60
2023/10/31 15:14:49;;;;;;;10.70;6.40;;;;;;;;;;6299188;28;20203;-60
2023/10/31 15:17:53;;;;;;;80.27;20.57;;;;;;;;;;6320353;28;20200;-60
2023/10/31 15:20:57;;;;;;;10.53;6.70;;;;;;;;;;6297936;28;20257;-60
2023/10/31 15:23:58;;;;;;;12.50;6.17;;;;;;;;;;6304433;28;20245;-60
2023/10/31 15:26:59;;;;;;;6.67;5.57;;;;;;;;;;6294572;28;20196;-60
2023/10/31 15:30:01;;;;;;;9.13;5.47;;;;;;;;;;6296851;28;20197;-59
2023/10/31 15:33:02;;;;;;;36.20;8.40;;;;;;;;;;6291646;28;20204;-59
2023/10/31 15:36:03;;;;;;;50.67;11.37;;;;;;;;;;6292098;28;20236;-59
2023/10/31 15:39:04;;;;;;;6.40;4.20;;;;;;;;;;6302825;28;20224;-59
2023/10/31 15:42:05;;;;;;;37.93;10.27;;;;;;;;;;6295388;28;20196;-60
2023/10/31 15:45:07;;;;;;;9.33;4.83;;;;;;;;;;6296958;28;20188;-61
2023/10/31 15:48:08;;;;;;;21.97;7.00;;;;;;;;;;6320115;28;20185;-60
2023/10/31 15:51:09;;;;;;;11.00;5.10;;;;;;;;;;6306584;28;20203;-61
2023/10/31 15:54:10;;;;;;;8.30;5.17;;;;;;;;;;6299483;28;20245;-59
2023/10/31 15:57:11;;;;;;;66.57;10.80;;;;;;;;;;6306350;28;20195;-60
2023/10/31 16:00:12;;;;;;;54.93;11.23;;;;;;;;;;6322746;28;20208;-61
2023/10/31 16:03:14;;;;;;;26.33;7.30;;;;;;;;;;6304557;28;20208;-60
2023/10/31 16:06:16;;;;;;;6.13;3.80;;;;;;;;;;6303832;28;20193;-60
2023/10/31 16:09:17;;;;;;;14.03;4.93;;;;;;;;;;6302078;28;20794;-60
2023/10/31 16:12:18;;;;;;;9.90;4.77;;;;;;;;;;6302399;28;20188;-60
2023/10/31 16:15:19;;;;;;;4.33;2.93;;;;;;;;;;6298847;28;20189;-61
2023/10/31 16:18:20;;;;;;;107.20;14.47;;;;;;;;;;6310182;28;20209;-60
2023/10/31 16:21:22;;;;;;;6.03;3.33;;;;;;;;;;6291529;28;20253;-60
2023/10/31 16:24:23;;;;;;;25.43;5.30;;;;;;;;;;6302528;28;20196;-61
2023/10/31 16:27:24;;;;;;;6.40;3.37;;;;;;;;;;6318481;28;20184;-61
2023/10/31 16:30:25;;;;;;;19.10;5.30;;;;;;;;;;6317812;28;20281;-61